sensor_id;sensor_type;location;lat;lon;timestamp;pressure;altitude;pressure_sealevel;temperature;humidity
11124;BME280;5616;42.692;23.312;2022-12-18T00:00:46;95891.63;;;7.91;92.70
11124;BME280;5616;42.692;23.312;2022-12-18T00:03:14;95885.81;;;7.89;92.90
11124;BME280;5616;42.692;23.312;2022-12-18T00:05:47;95897.34;;;7.85;92.66
11124;BME280;5616;42.692;23.312;2022-12-18T00:08:15;95902.91;;;7.81;92.58
11124;BME280;5616;42.692;23.312;2022-12-18T00:10:42;95901.50;;;7.69;92.32
11124;BME280;5616;42.692;23.312;2022-12-18T00:13:09;95900.53;;;7.70;93.07
11124;BME280;5616;42.692;23.312;2022-12-18T00:15:38;95897.69;;;7.73;93.36
11124;BME280;5616;42.692;23.312;2022-12-18T00:18:05;95899.31;;;7.74;92.80
11124;BME280;5616;42.692;23.312;2022-12-18T00:20:36;95897.56;;;7.65;93.70
11124;BME280;5616;42.692;23.312;2022-12-18T00:23:03;95912.72;;;7.68;93.31
11124;BME280;5616;42.692;23.312;2022-12-18T00:25:32;95913.81;;;7.65;93.99
11124;BME280;5616;42.692;23.312;2022-12-18T00:27:59;95913.72;;;7.57;94.19
11124;BME280;5616;42.692;23.312;2022-12-18T00:30:26;95922.63;;;7.63;93.24
11124;BME280;5616;42.692;23.312;2022-12-18T00:32:55;95924.00;;;7.57;91.54
11124;BME280;5616;42.692;23.312;2022-12-18T00:35:25;95932.69;;;7.47;92.17
11124;BME280;5616;42.692;23.312;2022-12-18T00:37:51;95925.78;;;7.47;91.98
11124;BME280;5616;42.692;23.312;2022-12-18T00:40:18;95928.50;;;7.46;91.86
11124;BME280;5616;42.692;23.312;2022-12-18T00:42:45;95936.66;;;7.31;91.97
11124;BME280;5616;42.692;23.312;2022-12-18T00:45:23;95930.16;;;7.27;92.13
11124;BME280;5616;42.692;23.312;2022-12-18T00:47:51;95934.53;;;7.17;91.69
11124;BME280;5616;42.692;23.312;2022-12-18T00:50:20;95940.22;;;7.11;92.46
11124;BME280;5616;42.692;23.312;2022-12-18T00:52:47;95944.03;;;7.07;92.28
11124;BME280;5616;42.692;23.312;2022-12-18T00:55:14;95941.06;;;7.02;91.88
11124;BME280;5616;42.692;23.312;2022-12-18T00:57:40;95949.19;;;6.98;91.63
11124;BME280;5616;42.692;23.312;2022-12-18T01:00:10;95947.78;;;7.03;93.08
11124;BME280;5616;42.692;23.312;2022-12-18T01:02:38;95949.31;;;7.06;91.67
11124;BME280;5616;42.692;23.312;2022-12-18T01:05:07;95954.72;;;7.03;91.75
11124;BME280;5616;42.692;23.312;2022-12-18T01:07:35;95959.44;;;6.98;92.90
11124;BME280;5616;42.692;23.312;2022-12-18T01:10:03;95960.53;;;6.95;91.24
11124;BME280;5616;42.692;23.312;2022-12-18T01:12:30;95963.63;;;6.79;92.08
11124;BME280;5616;42.692;23.312;2022-12-18T01:14:57;95965.00;;;6.74;92.54
11124;BME280;5616;42.692;23.312;2022-12-18T01:17:23;95977.13;;;6.72;91.79
11124;BME280;5616;42.692;23.312;2022-12-18T01:19:50;95968.09;;;6.77;93.85
11124;BME280;5616;42.692;23.312;2022-12-18T01:22:17;95970.53;;;6.79;93.44
11124;BME280;5616;42.692;23.312;2022-12-18T01:24:46;95975.28;;;6.74;91.78
11124;BME280;5616;42.692;23.312;2022-12-18T01:27:13;95983.22;;;6.71;92.21
11124;BME280;5616;42.692;23.312;2022-12-18T01:29:39;95974.03;;;6.59;93.62
11124;BME280;5616;42.692;23.312;2022-12-18T01:32:07;95975.94;;;6.47;94.39
11124;BME280;5616;42.692;23.312;2022-12-18T01:34:35;95983.88;;;6.54;93.96
11124;BME280;5616;42.692;23.312;2022-12-18T01:37:03;95979.56;;;6.64;93.46
11124;BME280;5616;42.692;23.312;2022-12-18T01:39:31;95996.19;;;6.60;92.21
11124;BME280;5616;42.692;23.312;2022-12-18T01:42:00;95993.88;;;6.57;92.33
11124;BME280;5616;42.692;23.312;2022-12-18T01:44:56;95994.28;;;6.52;93.64
11124;BME280;5616;42.692;23.312;2022-12-18T01:47:26;95998.34;;;6.55;94.06
11124;BME280;5616;42.692;23.312;2022-12-18T01:49:54;95990.91;;;6.52;94.00
11124;BME280;5616;42.692;23.312;2022-12-18T01:52:22;95992.13;;;6.48;94.39
11124;BME280;5616;42.692;23.312;2022-12-18T01:54:50;96007.53;;;6.48;93.77
11124;BME280;5616;42.692;23.312;2022-12-18T01:57:19;96004.81;;;6.49;92.85
11124;BME280;5616;42.692;23.312;2022-12-18T01:59:50;95987.78;;;7.34;100.00
11124;BME280;5616;42.692;23.312;2022-12-18T02:02:18;95993.63;;;6.79;94.34
11124;BME280;5616;42.692;23.312;2022-12-18T02:04:46;95997.00;;;6.60;93.26
11124;BME280;5616;42.692;23.312;2022-12-18T02:07:17;96000.38;;;6.61;92.31
11124;BME280;5616;42.692;23.312;2022-12-18T02:09:54;96005.22;;;6.64;92.80
11124;BME280;5616;42.692;23.312;2022-12-18T02:12:31;96002.25;;;6.59;91.05
11124;BME280;5616;42.692;23.312;2022-12-18T02:15:05;96006.84;;;6.55;90.99
11124;BME280;5616;42.692;23.312;2022-12-18T02:17:39;96011.97;;;6.46;92.64
11124;BME280;5616;42.692;23.312;2022-12-18T02:20:14;96018.00;;;6.35;91.61
11124;BME280;5616;42.692;23.312;2022-12-18T02:22:51;96018.16;;;6.34;91.81
11124;BME280;5616;42.692;23.312;2022-12-18T02:25:35;96025.56;;;6.27;92.23
11124;BME280;5616;42.692;23.312;2022-12-18T02:28:11;96028.66;;;6.21;92.36
11124;BME280;5616;42.692;23.312;2022-12-18T02:30:41;96020.25;;;6.19;92.58
11124;BME280;5616;42.692;23.312;2022-12-18T02:33:09;96042.41;;;6.20;92.80
11124;BME280;5616;42.692;23.312;2022-12-18T02:35:40;96027.16;;;6.19;92.20
11124;BME280;5616;42.692;23.312;2022-12-18T02:38:09;96025.13;;;6.12;93.30
11124;BME280;5616;42.692;23.312;2022-12-18T02:40:37;96025.03;;;6.24;93.42
11124;BME280;5616;42.692;23.312;2022-12-18T02:43:09;96035.56;;;6.30;92.70
11124;BME280;5616;42.692;23.312;2022-12-18T02:45:46;96035.81;;;6.27;92.16
11124;BME280;5616;42.692;23.312;2022-12-18T02:48:14;96034.47;;;6.23;92.83
11124;BME280;5616;42.692;23.312;2022-12-18T02:50:48;96030.97;;;6.24;91.78
11124;BME280;5616;42.692;23.312;2022-12-18T02:53:24;96031.19;;;6.11;92.39
11124;BME280;5616;42.692;23.312;2022-12-18T02:56:02;96034.44;;;6.13;93.05
11124;BME280;5616;42.692;23.312;2022-12-18T02:58:40;96030.41;;;6.21;92.68
11124;BME280;5616;42.692;23.312;2022-12-18T03:01:24;96033.38;;;6.16;92.55
11124;BME280;5616;42.692;23.312;2022-12-18T03:03:57;96039.19;;;6.28;92.64
11124;BME280;5616;42.692;23.312;2022-12-18T03:06:27;96037.59;;;6.36;91.93
11124;BME280;5616;42.692;23.312;2022-12-18T03:08:59;96032.88;;;6.32;92.33
11124;BME280;5616;42.692;23.312;2022-12-18T03:11:30;96040.81;;;6.29;91.90
11124;BME280;5616;42.692;23.312;2022-12-18T03:14:20;96040.91;;;6.18;92.74
11124;BME280;5616;42.692;23.312;2022-12-18T03:16:52;96054.38;;;6.00;93.57
11124;BME280;5616;42.692;23.312;2022-12-18T03:19:23;96045.78;;;6.11;93.73
11124;BME280;5616;42.692;23.312;2022-12-18T03:21:54;96055.81;;;5.93;93.00
11124;BME280;5616;42.692;23.312;2022-12-18T03:24:26;96053.09;;;5.74;94.71
11124;BME280;5616;42.692;23.312;2022-12-18T03:26:58;96050.94;;;5.70;94.83
11124;BME280;5616;42.692;23.312;2022-12-18T03:29:32;96052.44;;;5.72;95.39
11124;BME280;5616;42.692;23.312;2022-12-18T03:32:05;96070.56;;;5.80;94.07
11124;BME280;5616;42.692;23.312;2022-12-18T03:34:37;96059.63;;;5.78;93.53
11124;BME280;5616;42.692;23.312;2022-12-18T03:37:06;96065.31;;;5.82;93.08
11124;BME280;5616;42.692;23.312;2022-12-18T03:39:36;96071.72;;;5.87;92.00
11124;BME280;5616;42.692;23.312;2022-12-18T03:42:06;96078.25;;;5.80;92.20
11124;BME280;5616;42.692;23.312;2022-12-18T03:44:42;96091.28;;;5.77;91.51
11124;BME280;5616;42.692;23.312;2022-12-18T03:47:14;96093.75;;;5.79;92.40
11124;BME280;5616;42.692;23.312;2022-12-18T03:49:47;96093.44;;;5.93;91.86
11124;BME280;5616;42.692;23.312;2022-12-18T03:52:22;96104.75;;;5.90;91.24
11124;BME280;5616;42.692;23.312;2022-12-18T03:54:54;96096.94;;;5.92;91.23
11124;BME280;5616;42.692;23.312;2022-12-18T03:57:24;96096.38;;;5.88;91.74
11124;BME280;5616;42.692;23.312;2022-12-18T03:59:57;96102.91;;;5.92;91.96
11124;BME280;5616;42.692;23.312;2022-12-18T04:02:29;96100.44;;;5.91;90.51
11124;BME280;5616;42.692;23.312;2022-12-18T04:05:01;96109.78;;;5.92;91.54
11124;BME280;5616;42.692;23.312;2022-12-18T04:07:33;96107.38;;;5.79;91.10
11124;BME280;5616;42.692;23.312;2022-12-18T04:10:02;96111.63;;;5.69;91.28
11124;BME280;5616;42.692;23.312;2022-12-18T04:12:31;96114.59;;;5.74;90.26
11124;BME280;5616;42.692;23.312;2022-12-18T04:14:59;96117.69;;;5.68;89.31
11124;BME280;5616;42.692;23.312;2022-12-18T04:17:26;96130.38;;;5.49;90.69
11124;BME280;5616;42.692;23.312;2022-12-18T04:19:53;96126.75;;;5.51;91.00
11124;BME280;5616;42.692;23.312;2022-12-18T04:22:20;96136.34;;;5.38;91.40
11124;BME280;5616;42.692;23.312;2022-12-18T04:24:51;96138.97;;;5.48;90.73
11124;BME280;5616;42.692;23.312;2022-12-18T04:27:27;96140.81;;;5.57;89.41
11124;BME280;5616;42.692;23.312;2022-12-18T04:29:56;96143.13;;;5.60;89.78
11124;BME280;5616;42.692;23.312;2022-12-18T04:32:25;96142.88;;;5.63;90.86
11124;BME280;5616;42.692;23.312;2022-12-18T04:34:52;96155.25;;;5.58;90.68
11124;BME280;5616;42.692;23.312;2022-12-18T04:37:18;96158.72;;;5.57;89.20
11124;BME280;5616;42.692;23.312;2022-12-18T04:39:48;96160.56;;;5.66;88.63
11124;BME280;5616;42.692;23.312;2022-12-18T04:42:22;96164.81;;;5.77;86.68
11124;BME280;5616;42.692;23.312;2022-12-18T04:44:49;96168.34;;;5.96;87.63
11124;BME280;5616;42.692;23.312;2022-12-18T04:47:15;96177.97;;;6.04;86.06
11124;BME280;5616;42.692;23.312;2022-12-18T04:49:44;96165.53;;;5.99;86.86
11124;BME280;5616;42.692;23.312;2022-12-18T04:52:11;96176.09;;;5.85;84.63
11124;BME280;5616;42.692;23.312;2022-12-18T04:54:38;96179.44;;;5.65;84.67
11124;BME280;5616;42.692;23.312;2022-12-18T04:57:04;96187.84;;;5.56;86.51
11124;BME280;5616;42.692;23.312;2022-12-18T04:59:31;96192.03;;;5.57;85.37
11124;BME280;5616;42.692;23.312;2022-12-18T05:01:58;96198.66;;;5.60;84.52
11124;BME280;5616;42.692;23.312;2022-12-18T05:04:25;96186.06;;;6.30;95.55
11124;BME280;5616;42.692;23.312;2022-12-18T05:06:53;96192.16;;;6.08;85.90
11124;BME280;5616;42.692;23.312;2022-12-18T05:09:20;96199.88;;;5.76;84.90
11124;BME280;5616;42.692;23.312;2022-12-18T05:11:47;96207.38;;;5.68;84.69
11124;BME280;5616;42.692;23.312;2022-12-18T05:14:14;96205.50;;;5.70;85.44
11124;BME280;5616;42.692;23.312;2022-12-18T05:16:41;96205.97;;;5.64;86.11
11124;BME280;5616;42.692;23.312;2022-12-18T05:19:08;96213.97;;;5.50;86.68
11124;BME280;5616;42.692;23.312;2022-12-18T05:21:35;96216.97;;;5.55;86.48
11124;BME280;5616;42.692;23.312;2022-12-18T05:24:03;96226.31;;;5.45;85.33
11124;BME280;5616;42.692;23.312;2022-12-18T05:26:30;96222.00;;;5.45;86.03
11124;BME280;5616;42.692;23.312;2022-12-18T05:28:57;96225.00;;;5.50;86.83
11124;BME280;5616;42.692;23.312;2022-12-18T05:31:24;96231.91;;;5.50;87.00
11124;BME280;5616;42.692;23.312;2022-12-18T05:33:51;96230.94;;;5.51;87.60
11124;BME280;5616;42.692;23.312;2022-12-18T05:36:17;96212.00;;;5.42;86.72
11124;BME280;5616;42.692;23.312;2022-12-18T05:38:44;96238.75;;;5.49;85.42
11124;BME280;5616;42.692;23.312;2022-12-18T05:41:12;96244.81;;;5.48;85.07
11124;BME280;5616;42.692;23.312;2022-12-18T05:43:40;96251.81;;;5.46;85.08
11124;BME280;5616;42.692;23.312;2022-12-18T05:46:08;96256.56;;;5.51;84.81
11124;BME280;5616;42.692;23.312;2022-12-18T05:48:35;96255.50;;;5.53;85.12
11124;BME280;5616;42.692;23.312;2022-12-18T05:51:07;96251.38;;;5.30;84.87
11124;BME280;5616;42.692;23.312;2022-12-18T05:53:35;96258.75;;;5.24;84.86
11124;BME280;5616;42.692;23.312;2022-12-18T05:56:03;96259.28;;;5.27;86.36
11124;BME280;5616;42.692;23.312;2022-12-18T05:58:32;96261.97;;;5.26;85.59
11124;BME280;5616;42.692;23.312;2022-12-18T06:01:07;96268.63;;;5.28;85.20
11124;BME280;5616;42.692;23.312;2022-12-18T06:03:34;96267.78;;;5.28;84.56
11124;BME280;5616;42.692;23.312;2022-12-18T06:06:01;96271.84;;;5.30;85.29
11124;BME280;5616;42.692;23.312;2022-12-18T06:08:28;96274.19;;;5.33;85.25
11124;BME280;5616;42.692;23.312;2022-12-18T06:10:55;96277.09;;;5.40;84.21
11124;BME280;5616;42.692;23.312;2022-12-18T06:13:22;96273.25;;;5.34;83.70
11124;BME280;5616;42.692;23.312;2022-12-18T06:15:50;96273.59;;;5.30;84.22
11124;BME280;5616;42.692;23.312;2022-12-18T06:18:17;96279.69;;;5.29;83.74
11124;BME280;5616;42.692;23.312;2022-12-18T06:20:44;96282.00;;;5.21;84.18
11124;BME280;5616;42.692;23.312;2022-12-18T06:23:10;96281.19;;;5.20;84.77
11124;BME280;5616;42.692;23.312;2022-12-18T06:25:38;96286.44;;;5.19;84.93
11124;BME280;5616;42.692;23.312;2022-12-18T06:28:05;96284.56;;;5.21;84.21
11124;BME280;5616;42.692;23.312;2022-12-18T06:30:32;96282.94;;;5.20;85.14
11124;BME280;5616;42.692;23.312;2022-12-18T06:33:00;96292.94;;;5.23;84.45
11124;BME280;5616;42.692;23.312;2022-12-18T06:35:27;96290.00;;;5.27;84.62
11124;BME280;5616;42.692;23.312;2022-12-18T06:37:54;96296.88;;;5.27;85.79
11124;BME280;5616;42.692;23.312;2022-12-18T06:40:20;96302.50;;;5.32;84.54
11124;BME280;5616;42.692;23.312;2022-12-18T06:42:47;96311.44;;;5.26;83.61
11124;BME280;5616;42.692;23.312;2022-12-18T06:45:14;96315.06;;;5.24;84.61
11124;BME280;5616;42.692;23.312;2022-12-18T06:47:41;96322.97;;;5.21;84.35
11124;BME280;5616;42.692;23.312;2022-12-18T06:50:09;96324.25;;;5.26;84.73
11124;BME280;5616;42.692;23.312;2022-12-18T06:52:36;96315.75;;;5.26;83.90
11124;BME280;5616;42.692;23.312;2022-12-18T06:55:05;96331.13;;;5.26;83.49
11124;BME280;5616;42.692;23.312;2022-12-18T06:57:32;96330.06;;;5.28;82.86
11124;BME280;5616;42.692;23.312;2022-12-18T06:59:59;96329.94;;;5.41;82.43
11124;BME280;5616;42.692;23.312;2022-12-18T07:02:25;96324.34;;;5.47;81.02
11124;BME280;5616;42.692;23.312;2022-12-18T07:04:52;96323.97;;;5.51;81.54
11124;BME280;5616;42.692;23.312;2022-12-18T07:07:20;96327.47;;;5.50;81.44
11124;BME280;5616;42.692;23.312;2022-12-18T07:09:49;96336.91;;;5.50;80.72
11124;BME280;5616;42.692;23.312;2022-12-18T07:12:16;96340.25;;;5.50;79.79
11124;BME280;5616;42.692;23.312;2022-12-18T07:14:42;96342.03;;;5.50;80.41
11124;BME280;5616;42.692;23.312;2022-12-18T07:17:09;96340.16;;;5.52;82.89
11124;BME280;5616;42.692;23.312;2022-12-18T07:19:36;96344.69;;;5.48;81.48
11124;BME280;5616;42.692;23.312;2022-12-18T07:22:03;96348.78;;;5.51;80.76
11124;BME280;5616;42.692;23.312;2022-12-18T07:24:32;96359.50;;;5.45;82.63
11124;BME280;5616;42.692;23.312;2022-12-18T07:26:59;96352.66;;;5.34;82.77
11124;BME280;5616;42.692;23.312;2022-12-18T07:29:25;96352.53;;;5.36;82.37
11124;BME280;5616;42.692;23.312;2022-12-18T07:31:52;96356.50;;;5.40;81.11
11124;BME280;5616;42.692;23.312;2022-12-18T07:34:19;96359.84;;;5.40;81.20
11124;BME280;5616;42.692;23.312;2022-12-18T07:36:46;96354.16;;;5.37;80.81
11124;BME280;5616;42.692;23.312;2022-12-18T07:39:13;96362.75;;;5.36;81.73
11124;BME280;5616;42.692;23.312;2022-12-18T07:41:41;96374.28;;;5.30;83.27
11124;BME280;5616;42.692;23.312;2022-12-18T07:44:11;96376.84;;;5.30;81.18
11124;BME280;5616;42.692;23.312;2022-12-18T07:46:38;96376.06;;;5.19;82.35
11124;BME280;5616;42.692;23.312;2022-12-18T07:49:05;96373.25;;;5.00;83.54
11124;BME280;5616;42.692;23.312;2022-12-18T07:51:32;96379.75;;;5.04;84.08
11124;BME280;5616;42.692;23.312;2022-12-18T07:53:59;96374.41;;;5.07;84.47
11124;BME280;5616;42.692;23.312;2022-12-18T07:56:25;96387.09;;;5.08;83.99
11124;BME280;5616;42.692;23.312;2022-12-18T07:58:54;96382.06;;;5.07;83.60
11124;BME280;5616;42.692;23.312;2022-12-18T08:01:21;96392.44;;;5.05;84.79
11124;BME280;5616;42.692;23.312;2022-12-18T08:03:47;96392.91;;;4.99;83.46
11124;BME280;5616;42.692;23.312;2022-12-18T08:06:14;96393.97;;;5.08;83.93
11124;BME280;5616;42.692;23.312;2022-12-18T08:08:41;96395.59;;;5.20;84.14
11124;BME280;5616;42.692;23.312;2022-12-18T08:11:08;96400.72;;;5.20;83.50
11124;BME280;5616;42.692;23.312;2022-12-18T08:13:35;96402.81;;;5.26;83.36
11124;BME280;5616;42.692;23.312;2022-12-18T08:16:05;96406.41;;;5.23;84.42
11124;BME280;5616;42.692;23.312;2022-12-18T08:18:33;96406.75;;;5.30;84.02
11124;BME280;5616;42.692;23.312;2022-12-18T08:21:07;96424.44;;;5.22;82.42
11124;BME280;5616;42.692;23.312;2022-12-18T08:23:34;96418.03;;;5.05;83.79
11124;BME280;5616;42.692;23.312;2022-12-18T08:26:01;96422.44;;;5.03;83.82
11124;BME280;5616;42.692;23.312;2022-12-18T08:28:28;96423.97;;;5.06;82.05
11124;BME280;5616;42.692;23.312;2022-12-18T08:30:55;96429.66;;;5.09;84.33
11124;BME280;5616;42.692;23.312;2022-12-18T08:33:23;96432.34;;;5.08;83.52
11124;BME280;5616;42.692;23.312;2022-12-18T08:35:50;96428.78;;;5.21;82.63
11124;BME280;5616;42.692;23.312;2022-12-18T08:38:16;96441.00;;;5.29;81.00
11124;BME280;5616;42.692;23.312;2022-12-18T08:40:43;96437.00;;;5.14;82.59
11124;BME280;5616;42.692;23.312;2022-12-18T08:43:10;96430.16;;;5.25;81.79
11124;BME280;5616;42.692;23.312;2022-12-18T08:45:55;96433.19;;;5.30;81.53
11124;BME280;5616;42.692;23.312;2022-12-18T08:48:23;96434.72;;;5.44;81.69
11124;BME280;5616;42.692;23.312;2022-12-18T08:50:54;96440.16;;;5.62;81.17
11124;BME280;5616;42.692;23.312;2022-12-18T08:53:21;96442.28;;;5.56;80.99
11124;BME280;5616;42.692;23.312;2022-12-18T08:55:48;96444.47;;;5.61;78.40
11124;BME280;5616;42.692;23.312;2022-12-18T08:58:14;96439.38;;;5.50;77.03
11124;BME280;5616;42.692;23.312;2022-12-18T09:00:41;96444.38;;;5.51;78.76
11124;BME280;5616;42.692;23.312;2022-12-18T09:03:11;96441.34;;;5.57;77.96
11124;BME280;5616;42.692;23.312;2022-12-18T09:05:39;96440.31;;;5.60;78.72
11124;BME280;5616;42.692;23.312;2022-12-18T09:08:06;96435.63;;;5.54;77.48
11124;BME280;5616;42.692;23.312;2022-12-18T09:10:33;96433.88;;;5.43;79.01
11124;BME280;5616;42.692;23.312;2022-12-18T09:13:00;96434.03;;;5.53;77.57
11124;BME280;5616;42.692;23.312;2022-12-18T09:15:27;96439.72;;;5.56;76.63
11124;BME280;5616;42.692;23.312;2022-12-18T09:17:54;96441.56;;;5.43;76.75
11124;BME280;5616;42.692;23.312;2022-12-18T09:20:21;96442.41;;;5.44;77.88
11124;BME280;5616;42.692;23.312;2022-12-18T09:22:49;96436.59;;;5.42;77.75
11124;BME280;5616;42.692;23.312;2022-12-18T09:25:16;96438.66;;;5.59;75.75
11124;BME280;5616;42.692;23.312;2022-12-18T09:27:42;96436.91;;;5.71;76.78
11124;BME280;5616;42.692;23.312;2022-12-18T09:30:10;96435.03;;;5.73;74.82
11124;BME280;5616;42.692;23.312;2022-12-18T09:32:37;96433.53;;;5.59;75.85
11124;BME280;5616;42.692;23.312;2022-12-18T09:35:04;96437.72;;;5.82;75.57
11124;BME280;5616;42.692;23.312;2022-12-18T09:37:31;96435.28;;;5.92;74.76
11124;BME280;5616;42.692;23.312;2022-12-18T09:39:59;96434.47;;;5.91;74.14
11124;BME280;5616;42.692;23.312;2022-12-18T09:42:26;96445.41;;;5.93;75.58
11124;BME280;5616;42.692;23.312;2022-12-18T09:44:53;96432.72;;;5.81;74.67
11124;BME280;5616;42.692;23.312;2022-12-18T09:47:23;96446.47;;;5.91;74.55
11124;BME280;5616;42.692;23.312;2022-12-18T09:49:53;96428.50;;;6.02;74.81
11124;BME280;5616;42.692;23.312;2022-12-18T09:52:23;96440.28;;;6.04;74.20
11124;BME280;5616;42.692;23.312;2022-12-18T09:54:56;96437.00;;;6.13;73.63
11124;BME280;5616;42.692;23.312;2022-12-18T09:57:26;96431.75;;;6.15;74.22
11124;BME280;5616;42.692;23.312;2022-12-18T09:59:56;96431.50;;;6.18;72.35
11124;BME280;5616;42.692;23.312;2022-12-18T10:02:26;96427.00;;;6.10;73.19
11124;BME280;5616;42.692;23.312;2022-12-18T10:05:04;96429.56;;;6.10;72.79
11124;BME280;5616;42.692;23.312;2022-12-18T10:07:39;96428.34;;;6.14;72.57
11124;BME280;5616;42.692;23.312;2022-12-18T10:10:17;96438.97;;;6.21;73.30
11124;BME280;5616;42.692;23.312;2022-12-18T10:12:55;96424.00;;;6.37;73.05
11124;BME280;5616;42.692;23.312;2022-12-18T10:15:30;96425.56;;;6.49;70.73
11124;BME280;5616;42.692;23.312;2022-12-18T10:18:06;96430.00;;;6.47;70.32
11124;BME280;5616;42.692;23.312;2022-12-18T10:20:43;96430.56;;;6.51;71.96
11124;BME280;5616;42.692;23.312;2022-12-18T10:23:15;96432.88;;;6.54;70.45
11124;BME280;5616;42.692;23.312;2022-12-18T10:25:50;96439.19;;;6.61;71.13
11124;BME280;5616;42.692;23.312;2022-12-18T10:28:22;96428.34;;;6.78;71.54
11124;BME280;5616;42.692;23.312;2022-12-18T10:30:50;96434.78;;;6.52;72.30
11124;BME280;5616;42.692;23.312;2022-12-18T10:33:18;96434.19;;;6.48;73.56
11124;BME280;5616;42.692;23.312;2022-12-18T10:35:47;96437.78;;;6.57;70.49
11124;BME280;5616;42.692;23.312;2022-12-18T10:38:24;96430.28;;;6.65;77.02
11124;BME280;5616;42.692;23.312;2022-12-18T10:40:53;96429.13;;;6.69;71.91
11124;BME280;5616;42.692;23.312;2022-12-18T10:43:24;96422.97;;;6.60;70.27
11124;BME280;5616;42.692;23.312;2022-12-18T10:48:50;96418.50;;;6.42;72.52
11124;BME280;5616;42.692;23.312;2022-12-18T10:51:23;96419.81;;;6.57;73.26
11124;BME280;5616;42.692;23.312;2022-12-18T10:53:54;96428.28;;;6.68;70.46
11124;BME280;5616;42.692;23.312;2022-12-18T10:56:24;96425.41;;;6.83;71.00
11124;BME280;5616;42.692;23.312;2022-12-18T10:58:58;96425.41;;;7.03;70.08
11124;BME280;5616;42.692;23.312;2022-12-18T11:01:25;96419.53;;;7.12;70.94
11124;BME280;5616;42.692;23.312;2022-12-18T11:04:04;96421.66;;;7.07;71.97
11124;BME280;5616;42.692;23.312;2022-12-18T11:06:52;96418.41;;;7.05;71.63
11124;BME280;5616;42.692;23.312;2022-12-18T11:09:20;96440.75;;;7.14;70.49
11124;BME280;5616;42.692;23.312;2022-12-18T11:11:48;96426.53;;;7.10;69.38
11124;BME280;5616;42.692;23.312;2022-12-18T11:14:22;96432.50;;;7.11;67.59
11124;BME280;5616;42.692;23.312;2022-12-18T11:16:50;96427.03;;;7.04;67.95
11124;BME280;5616;42.692;23.312;2022-12-18T11:19:30;96430.25;;;6.97;67.52
11124;BME280;5616;42.692;23.312;2022-12-18T11:21:58;96427.22;;;6.92;70.26
11124;BME280;5616;42.692;23.312;2022-12-18T11:24:29;96426.84;;;6.96;68.98
11124;BME280;5616;42.692;23.312;2022-12-18T11:26:59;96427.81;;;6.95;69.96
11124;BME280;5616;42.692;23.312;2022-12-18T11:29:35;96427.00;;;6.95;69.58
11124;BME280;5616;42.692;23.312;2022-12-18T11:32:23;96435.66;;;7.03;70.16
11124;BME280;5616;42.692;23.312;2022-12-18T11:34:53;96430.03;;;7.09;67.91
11124;BME280;5616;42.692;23.312;2022-12-18T11:37:24;96418.22;;;6.97;68.56
11124;BME280;5616;42.692;23.312;2022-12-18T11:39:55;96424.72;;;7.01;68.69
11124;BME280;5616;42.692;23.312;2022-12-18T11:42:27;96439.44;;;6.99;68.80
11124;BME280;5616;42.692;23.312;2022-12-18T11:44:59;96434.25;;;6.90;67.82
11124;BME280;5616;42.692;23.312;2022-12-18T11:47:34;96421.22;;;6.82;68.24
11124;BME280;5616;42.692;23.312;2022-12-18T11:50:11;96436.00;;;6.89;68.16
11124;BME280;5616;42.692;23.312;2022-12-18T11:52:40;96436.53;;;6.51;70.37
11124;BME280;5616;42.692;23.312;2022-12-18T11:55:12;96434.84;;;6.61;69.88
11124;BME280;5616;42.692;23.312;2022-12-18T11:57:48;96433.91;;;6.62;68.63
11124;BME280;5616;42.692;23.312;2022-12-18T12:00:21;96430.97;;;6.67;69.16
11124;BME280;5616;42.692;23.312;2022-12-18T12:03:08;96425.97;;;6.65;68.08
11124;BME280;5616;42.692;23.312;2022-12-18T12:05:48;96422.19;;;6.69;69.84
11124;BME280;5616;42.692;23.312;2022-12-18T12:08:21;96425.78;;;6.78;70.37
11124;BME280;5616;42.692;23.312;2022-12-18T12:11:00;96426.47;;;6.59;70.91
11124;BME280;5616;42.692;23.312;2022-12-18T12:13:40;96427.59;;;6.66;70.28
11124;BME280;5616;42.692;23.312;2022-12-18T12:16:17;96429.28;;;6.77;70.06
11124;BME280;5616;42.692;23.312;2022-12-18T12:19:02;96422.41;;;6.77;70.75
11124;BME280;5616;42.692;23.312;2022-12-18T12:21:36;96421.53;;;6.88;70.75
11124;BME280;5616;42.692;23.312;2022-12-18T12:24:14;96426.13;;;6.85;70.57
11124;BME280;5616;42.692;23.312;2022-12-18T12:26:52;96421.56;;;6.77;70.73
11124;BME280;5616;42.692;23.312;2022-12-18T12:29:35;96428.22;;;6.79;70.20
11124;BME280;5616;42.692;23.312;2022-12-18T12:32:15;96429.81;;;6.92;69.48
11124;BME280;5616;42.692;23.312;2022-12-18T12:34:55;96440.91;;;6.92;69.19
11124;BME280;5616;42.692;23.312;2022-12-18T12:37:33;96441.13;;;6.89;68.40
11124;BME280;5616;42.692;23.312;2022-12-18T12:40:03;96450.19;;;6.72;71.61
11124;BME280;5616;42.692;23.312;2022-12-18T12:42:32;96442.75;;;6.69;71.15
11124;BME280;5616;42.692;23.312;2022-12-18T12:45:22;96441.19;;;6.78;70.22
11124;BME280;5616;42.692;23.312;2022-12-18T12:47:54;96437.19;;;6.85;69.89
11124;BME280;5616;42.692;23.312;2022-12-18T12:50:22;96436.97;;;6.56;72.15
11124;BME280;5616;42.692;23.312;2022-12-18T12:52:52;96435.84;;;6.49;71.08
11124;BME280;5616;42.692;23.312;2022-12-18T12:55:21;96439.22;;;6.50;72.06
11124;BME280;5616;42.692;23.312;2022-12-18T12:57:57;96438.38;;;6.60;72.57
11124;BME280;5616;42.692;23.312;2022-12-18T13:00:30;96438.66;;;6.67;71.67
11124;BME280;5616;42.692;23.312;2022-12-18T13:03:15;96447.63;;;6.72;71.58
11124;BME280;5616;42.692;23.312;2022-12-18T13:05:49;96456.34;;;6.81;70.86
11124;BME280;5616;42.692;23.312;2022-12-18T13:08:23;96451.22;;;6.81;69.55
11124;BME280;5616;42.692;23.312;2022-12-18T13:10:52;96458.34;;;6.77;69.18
11124;BME280;5616;42.692;23.312;2022-12-18T13:13:50;96459.19;;;6.67;68.83
11124;BME280;5616;42.692;23.312;2022-12-18T13:16:20;96467.72;;;6.67;68.62
11124;BME280;5616;42.692;23.312;2022-12-18T13:18:51;96462.97;;;6.63;68.98
11124;BME280;5616;42.692;23.312;2022-12-18T13:21:21;96477.31;;;6.65;69.25
11124;BME280;5616;42.692;23.312;2022-12-18T13:23:50;96481.03;;;6.61;70.66
11124;BME280;5616;42.692;23.312;2022-12-18T13:26:32;96472.88;;;6.56;70.78
11124;BME280;5616;42.692;23.312;2022-12-18T13:29:00;96475.81;;;6.52;71.05